createdAt,value
2023-03-02T00:01:09.305Z,1.00
2023-03-02T00:03:40.990Z,0.90
2023-03-02T00:06:08.945Z,0.90
2023-03-02T00:08:36.455Z,0.90
2023-03-02T00:11:03.332Z,0.90
2023-03-02T00:13:32.111Z,0.90
2023-03-02T00:15:58.799Z,0.90
2023-03-02T00:18:25.500Z,0.90
2023-03-02T00:20:52.190Z,0.90
2023-03-02T00:23:19.150Z,0.90
2023-03-02T00:25:45.804Z,0.80
2023-03-02T00:28:12.443Z,0.80
2023-03-02T00:30:39.671Z,0.80
2023-03-02T00:33:06.344Z,0.80
2023-03-02T00:35:41.025Z,0.80
2023-03-02T00:38:08.234Z,0.80
2023-03-02T00:40:35.990Z,0.70
2023-03-02T00:43:03.108Z,0.70
2023-03-02T00:45:30.190Z,0.70
2023-03-02T00:47:56.839Z,0.70
2023-03-02T00:50:23.513Z,0.70
2023-03-02T00:52:50.205Z,0.60
2023-03-02T00:55:17.010Z,0.60
2023-03-02T00:57:43.676Z,0.60
2023-03-02T01:00:11.239Z,0.60
2023-03-02T01:02:43.897Z,0.60
2023-03-02T01:05:10.819Z,0.60
2023-03-02T01:07:37.451Z,0.50
2023-03-02T01:10:04.510Z,0.50
2023-03-02T01:12:32.551Z,0.60
2023-03-02T01:14:59.463Z,0.60
2023-03-02T01:17:26.636Z,0.50
2023-03-02T01:19:53.642Z,0.50
2023-03-02T01:22:21.783Z,0.50
2023-03-02T01:24:48.952Z,0.40
2023-03-02T01:27:15.906Z,0.40
2023-03-02T01:29:42.682Z,0.30
2023-03-02T01:32:09.385Z,0.30
2023-03-02T01:34:36.124Z,0.30
2023-03-02T01:37:02.743Z,0.30
2023-03-02T01:39:29.754Z,0.30
2023-03-02T01:41:56.664Z,0.30
2023-03-02T01:44:57.239Z,0.20
2023-03-02T01:47:37.611Z,0.20
2023-03-02T01:50:21.692Z,0.20
2023-03-02T01:52:49.568Z,0.20
2023-03-02T01:55:19.332Z,0.20
2023-03-02T01:57:49.065Z,0.20
2023-03-02T02:00:23.645Z,0.20
2023-03-02T02:02:51.860Z,0.20
2023-03-02T02:05:24.504Z,0.10
2023-03-02T02:07:51.167Z,0.10
2023-03-02T02:10:18.060Z,0.10
2023-03-02T02:12:44.668Z,0.10
2023-03-02T02:15:11.434Z,0.10
2023-03-02T02:17:38.195Z,0.20
2023-03-02T02:20:10.909Z,0.10
2023-03-02T02:23:28.228Z,0.20
2023-03-02T02:26:20.675Z,0.20
2023-03-02T02:28:59.755Z,0.20
2023-03-02T02:31:50.207Z,0.10
2023-03-02T02:34:22.516Z,0.10
2023-03-02T02:36:53.970Z,0.10
2023-03-02T02:39:34.067Z,0.20
2023-03-02T02:42:04.700Z,0.20
2023-03-02T02:44:31.954Z,0.20
2023-03-02T02:46:58.643Z,0.20
2023-03-02T02:49:35.612Z,0.10
2023-03-02T02:52:03.929Z,0.20
2023-03-02T02:54:32.652Z,0.10
2023-03-02T02:57:02.682Z,0.10
2023-03-02T02:59:35.330Z,0.10
2023-03-02T03:02:02.509Z,0.10
2023-03-02T03:04:31.989Z,0.10
2023-03-02T03:07:04.849Z,0.10
2023-03-02T03:09:32.645Z,0.10
2023-03-02T03:12:15.370Z,0.00
2023-03-02T03:14:42.211Z,0.00
2023-03-02T03:17:12.531Z,0.00
2023-03-02T03:19:45.181Z,0.00
2023-03-02T03:22:14.566Z,0.00
2023-03-02T03:24:43.105Z,0.10
2023-03-02T03:27:12.465Z,0.10
2023-03-02T03:29:41.359Z,0.10
2023-03-02T03:32:08.124Z,0.10
2023-03-02T03:34:40.799Z,0.10
2023-03-02T03:37:14.076Z,0.10
2023-03-02T03:39:41.347Z,0.10
2023-03-02T03:42:09.341Z,0.10
2023-03-02T03:44:36.212Z,0.10
2023-03-02T03:47:02.959Z,0.10
2023-03-02T03:49:29.865Z,0.10
2023-03-02T03:51:56.987Z,0.10
2023-03-02T03:54:23.875Z,0.10
2023-03-02T03:56:50.923Z,0.10
2023-03-02T03:59:24.328Z,0.10
2023-03-02T04:01:52.418Z,0.10
2023-03-02T04:04:26.365Z,0.10
2023-03-02T04:06:53.462Z,0.10
2023-03-02T04:09:20.763Z,0.10
2023-03-02T04:11:49.939Z,0.10
2023-03-02T04:14:17.236Z,0.10
2023-03-02T04:16:44.286Z,0.10
2023-03-02T04:19:11.965Z,0.10
2023-03-02T04:21:40.728Z,0.10
2023-03-02T04:24:08.996Z,0.00
2023-03-02T04:26:37.362Z,0.00
2023-03-02T04:29:04.162Z,0.00
2023-03-02T04:31:33.897Z,0.00
2023-03-02T04:34:04.201Z,0.00
2023-03-02T04:36:32.991Z,0.00
2023-03-02T04:38:59.968Z,0.00
2023-03-02T04:41:26.738Z,0.00
2023-03-02T04:43:53.405Z,-0.10
2023-03-02T04:46:23.811Z,-0.10
2023-03-02T04:48:51.434Z,-0.10
2023-03-02T04:51:27.747Z,-0.10
2023-03-02T04:53:57.096Z,-0.20
2023-03-02T04:56:23.939Z,-0.20
2023-03-02T04:58:51.539Z,-0.20
2023-03-02T05:01:19.680Z,-0.20
2023-03-02T05:03:46.745Z,-0.20
2023-03-02T05:06:13.449Z,-0.20
2023-03-02T05:08:40.709Z,-0.20
2023-03-02T05:11:07.892Z,-0.20
2023-03-02T05:13:35.825Z,-0.20
2023-03-02T05:16:03.042Z,-0.30
2023-03-02T05:18:29.934Z,-0.30
2023-03-02T05:20:57.158Z,-0.30
2023-03-02T05:23:25.449Z,-0.40
2023-03-02T05:25:54.515Z,-0.40
2023-03-02T05:28:22.976Z,-0.40
2023-03-02T05:30:50.005Z,-0.50
2023-03-02T05:33:17.451Z,-0.40
2023-03-02T05:35:45.804Z,-0.40
2023-03-02T05:38:13.009Z,-0.40
2023-03-02T05:40:42.233Z,-0.40
2023-03-02T05:43:10.543Z,-0.40
2023-03-02T05:45:38.598Z,-0.40
2023-03-02T05:48:07.603Z,-0.50
2023-03-02T05:50:35.469Z,-0.50
2023-03-02T05:53:02.568Z,-0.50
2023-03-02T05:55:30.656Z,-0.50
2023-03-02T05:57:57.623Z,-0.50
2023-03-02T06:00:24.458Z,-0.60
2023-03-02T06:02:51.109Z,-0.50
2023-03-02T06:05:20.107Z,-0.50
2023-03-02T06:07:46.774Z,-0.50
2023-03-02T06:10:14.506Z,-0.40
2023-03-02T06:12:41.588Z,-0.40
2023-03-02T06:15:09.397Z,-0.40
2023-03-02T06:17:37.763Z,-0.40
2023-03-02T06:20:10.234Z,-0.30
2023-03-02T06:22:42.405Z,-0.30
2023-03-02T06:25:10.532Z,-0.40
2023-03-02T06:27:39.938Z,-0.30
2023-03-02T06:30:08.160Z,-0.20
2023-03-02T06:32:35.546Z,-0.20
2023-03-02T06:35:03.784Z,-0.10
2023-03-02T06:37:31.258Z,-0.10
2023-03-02T06:39:58.770Z,-0.20
2023-03-02T06:42:27.255Z,-0.10
2023-03-02T06:44:57.488Z,-0.10
2023-03-02T06:47:24.474Z,0.00
2023-03-02T06:49:51.257Z,0.10
2023-03-02T06:52:17.960Z,0.30
2023-03-02T06:54:44.699Z,0.30
2023-03-02T06:57:11.447Z,0.40
2023-03-02T06:59:38.121Z,0.50
2023-03-02T07:02:04.827Z,0.60
2023-03-02T07:04:32.568Z,0.60
2023-03-02T07:07:01.323Z,0.70
2023-03-02T07:09:30.760Z,0.70
2023-03-02T07:11:58.578Z,0.80
2023-03-02T07:14:25.300Z,0.80
2023-03-02T07:16:52.047Z,1.00
2023-03-02T07:19:18.996Z,0.90
2023-03-02T07:21:48.531Z,1.00
2023-03-02T07:24:15.185Z,1.10
2023-03-02T07:26:41.849Z,1.20
2023-03-02T07:29:10.007Z,1.40
2023-03-02T07:31:36.628Z,1.50
2023-03-02T07:34:03.275Z,1.60
2023-03-02T07:36:30.082Z,1.60
2023-03-02T07:38:57.505Z,1.50
2023-03-02T07:41:24.294Z,1.70
2023-03-02T07:43:50.943Z,1.80
2023-03-02T07:46:17.683Z,2.20
2023-03-02T07:48:44.472Z,2.30
2023-03-02T07:51:11.118Z,2.60
2023-03-02T07:53:39.467Z,2.80
2023-03-02T07:56:07.958Z,2.50
2023-03-02T07:58:35.426Z,2.60
2023-03-02T08:01:02.197Z,2.80
2023-03-02T08:03:28.935Z,3.10
2023-03-02T08:05:55.726Z,3.10
2023-03-02T08:08:24.513Z,3.10
2023-03-02T08:10:51.189Z,3.40
2023-03-02T08:13:17.930Z,3.50
2023-03-02T08:15:44.635Z,3.30
2023-03-02T08:18:12.766Z,3.40
2023-03-02T08:20:41.282Z,3.30
2023-03-02T08:23:08.533Z,3.50
2023-03-02T08:25:35.292Z,3.60
2023-03-02T08:28:01.929Z,3.70
2023-03-02T08:30:30.469Z,3.50
2023-03-02T08:32:57.118Z,3.70
2023-03-02T08:35:27.547Z,3.90
2023-03-02T08:37:54.207Z,4.00
2023-03-02T08:40:20.932Z,4.10
2023-03-02T08:42:48.124Z,4.30
2023-03-02T08:45:15.522Z,4.30
2023-03-02T08:47:44.335Z,4.10
2023-03-02T08:50:11.361Z,4.40
2023-03-02T08:52:37.971Z,4.20
2023-03-02T08:55:05.301Z,4.20
2023-03-02T08:57:31.986Z,4.00
2023-03-02T08:59:58.625Z,4.00
2023-03-02T09:02:25.323Z,4.20
2023-03-02T09:04:52.259Z,4.40
2023-03-02T09:07:18.977Z,4.30
2023-03-02T09:09:46.575Z,4.50
2023-03-02T09:12:13.383Z,4.30
2023-03-02T09:14:40.038Z,4.20
2023-03-02T09:17:06.945Z,4.40
2023-03-02T09:19:43.241Z,4.30
2023-03-02T09:22:12.771Z,4.10
2023-03-02T09:24:40.973Z,4.10
2023-03-02T09:27:10.799Z,4.20
2023-03-02T09:29:37.456Z,4.30
2023-03-02T09:32:04.412Z,4.30
2023-03-02T09:34:31.089Z,4.60
2023-03-02T09:36:57.719Z,4.70
2023-03-02T09:39:24.350Z,4.50
2023-03-02T09:42:11.280Z,4.50
2023-03-02T09:44:56.659Z,4.60
2023-03-02T09:47:43.656Z,4.60
2023-03-02T09:50:31.266Z,4.70
2023-03-02T09:53:08.892Z,4.90
2023-03-02T09:55:36.882Z,5.20
2023-03-02T09:58:17.333Z,5.30
2023-03-02T10:00:45.170Z,5.60
2023-03-02T10:03:23.574Z,5.50
2023-03-02T10:05:54.778Z,5.70
2023-03-02T10:08:25.442Z,5.80
2023-03-02T10:11:12.140Z,5.70
2023-03-02T10:14:05.225Z,5.70
2023-03-02T10:16:38.554Z,5.70
2023-03-02T10:19:27.481Z,5.80
2023-03-02T10:22:22.106Z,6.00
2023-03-02T10:25:03.682Z,6.00
2023-03-02T10:27:46.834Z,6.00
2023-03-02T10:30:34.511Z,6.20
2023-03-02T10:33:08.216Z,5.90
2023-03-02T10:35:37.898Z,6.00
2023-03-02T10:38:13.969Z,6.20
2023-03-02T10:40:48.575Z,6.20
2023-03-02T10:43:24.965Z,6.20
2023-03-02T10:46:07.711Z,6.40
2023-03-02T10:48:49.384Z,6.40
2023-03-02T10:51:28.502Z,6.70
2023-03-02T10:54:04.376Z,6.80
2023-03-02T10:56:32.199Z,6.60
2023-03-02T10:59:03.368Z,6.50
2023-03-02T11:01:34.875Z,6.70
2023-03-02T11:04:03.413Z,6.90
2023-03-02T11:06:33.728Z,7.00
2023-03-02T11:09:02.416Z,7.20
2023-03-02T11:11:29.931Z,7.00
2023-03-02T11:14:07.493Z,6.90
2023-03-02T11:16:34.241Z,7.10
2023-03-02T11:19:07.067Z,7.10
2023-03-02T11:22:08.757Z,7.20
2023-03-02T11:24:55.819Z,7.20
2023-03-02T11:27:30.006Z,7.20
2023-03-02T11:30:19.072Z,7.20
2023-03-02T11:32:54.332Z,7.20
2023-03-02T11:35:32.667Z,7.30
2023-03-02T11:38:27.134Z,7.40
2023-03-02T11:41:17.591Z,7.50
2023-03-02T11:43:44.561Z,7.50
2023-03-02T11:46:25.894Z,7.40
2023-03-02T11:48:55.990Z,7.30
2023-03-02T11:51:33.599Z,7.30
2023-03-02T11:54:16.085Z,7.30
2023-03-02T11:56:45.672Z,7.20
2023-03-02T11:59:20.887Z,7.30
2023-03-02T12:01:51.378Z,7.40
2023-03-02T12:04:28.911Z,7.50
2023-03-02T12:06:56.200Z,7.60
2023-03-02T12:09:22.848Z,7.80
2023-03-02T12:11:59.901Z,7.90
2023-03-02T12:14:35.279Z,8.10
2023-03-02T12:17:06.110Z,8.10
2023-03-02T12:19:42.342Z,8.10
2023-03-02T12:22:12.510Z,8.30
2023-03-02T12:24:44.911Z,8.40
2023-03-02T12:27:20.850Z,8.20
2023-03-02T12:30:10.704Z,8.10
2023-03-02T12:32:41.135Z,8.20
2023-03-02T12:35:07.770Z,8.30
2023-03-02T12:37:51.945Z,8.40
2023-03-02T12:40:50.327Z,8.50
2023-03-02T12:43:26.049Z,8.50
2023-03-02T12:46:18.633Z,8.50
2023-03-02T12:49:13.826Z,8.50
2023-03-02T12:51:54.128Z,8.40
2023-03-02T12:54:32.560Z,8.40
2023-03-02T12:57:15.500Z,8.60
2023-03-02T12:59:43.170Z,8.60
2023-03-02T13:02:19.273Z,8.70
2023-03-02T13:04:59.717Z,8.70
2023-03-02T13:07:36.118Z,8.70
2023-03-02T13:10:24.215Z,8.90
2023-03-02T13:12:53.951Z,8.90
2023-03-02T13:15:20.637Z,9.00
2023-03-02T13:18:00.321Z,9.00
2023-03-02T13:20:29.106Z,9.00
2023-03-02T13:22:56.250Z,9.00
2023-03-02T13:25:29.782Z,9.10
2023-03-02T13:28:00.783Z,9.00
2023-03-02T13:30:31.871Z,9.00
2023-03-02T13:33:05.133Z,9.00
2023-03-02T13:35:35.942Z,9.00
2023-03-02T13:38:06.597Z,8.90
2023-03-02T13:40:51.599Z,9.00
2023-03-02T13:43:31.430Z,9.00
2023-03-02T13:46:22.158Z,8.90
2023-03-02T13:49:11.313Z,8.90
2023-03-02T13:51:42.332Z,8.80
2023-03-02T13:54:28.133Z,8.90
2023-03-02T13:56:56.726Z,8.80
2023-03-02T13:59:23.674Z,8.80
2023-03-02T14:01:50.952Z,8.80
2023-03-02T14:04:23.136Z,8.70
2023-03-02T14:06:51.498Z,8.70
2023-03-02T14:09:18.850Z,8.80
2023-03-02T14:11:48.977Z,8.80
2023-03-02T14:14:24.821Z,8.90
2023-03-02T14:16:51.951Z,8.90
2023-03-02T14:19:21.166Z,9.00
2023-03-02T14:21:48.168Z,9.00
2023-03-02T14:24:14.940Z,9.10
2023-03-02T14:26:49.572Z,9.10
2023-03-02T14:29:32.273Z,9.10
2023-03-02T14:32:05.028Z,9.10
2023-03-02T14:34:32.365Z,9.20
2023-03-02T14:37:02.765Z,9.20
2023-03-02T14:39:36.688Z,9.30
2023-03-02T14:42:05.222Z,9.30
2023-03-02T14:44:32.335Z,9.20
2023-03-02T14:46:58.985Z,9.20
2023-03-02T14:49:25.786Z,9.10
2023-03-02T14:51:57.767Z,8.90
2023-03-02T14:54:24.640Z,9.00
2023-03-02T14:56:52.706Z,9.00
2023-03-02T14:59:19.419Z,9.00
2023-03-02T15:01:46.142Z,9.00
2023-03-02T15:04:12.920Z,9.00
2023-03-02T15:06:42.435Z,9.00
2023-03-02T15:09:11.198Z,9.00
2023-03-02T15:11:37.979Z,9.00
2023-03-02T15:14:04.789Z,8.90
2023-03-02T15:16:31.506Z,8.90
2023-03-02T15:18:58.993Z,8.90
2023-03-02T15:21:25.758Z,8.80
2023-03-02T15:23:52.747Z,8.80
2023-03-02T15:26:19.509Z,8.80
2023-03-02T15:28:50.378Z,8.70
2023-03-02T15:31:18.406Z,8.70
2023-03-02T15:33:45.709Z,8.70
2023-03-02T15:36:14.114Z,8.60
2023-03-02T15:38:41.170Z,8.50
2023-03-02T15:41:13.069Z,8.50
2023-03-02T15:43:39.984Z,8.50
2023-03-02T15:46:09.259Z,8.40
2023-03-02T15:48:37.470Z,8.30
2023-03-02T15:51:10.535Z,8.20
2023-03-02T15:53:38.576Z,8.00
2023-03-02T15:56:09.760Z,8.00
2023-03-02T15:58:36.746Z,7.80
2023-03-02T16:01:08.908Z,7.70
2023-03-02T16:03:35.733Z,7.60
2023-03-02T16:06:02.936Z,7.50
2023-03-02T16:08:29.939Z,7.40
2023-03-02T16:11:05.861Z,7.30
2023-03-02T16:13:33.274Z,7.20
2023-03-02T16:16:05.317Z,7.20
2023-03-02T16:18:32.715Z,7.10
2023-03-02T16:20:59.620Z,7.00
2023-03-02T16:23:26.340Z,6.90
2023-03-02T16:25:52.996Z,6.90
2023-03-02T16:28:20.352Z,6.80
2023-03-02T16:30:48.692Z,6.80
2023-03-02T16:33:18.132Z,6.60
2023-03-02T16:35:44.865Z,6.60
2023-03-02T16:38:11.826Z,6.50
2023-03-02T16:40:40.034Z,6.30
2023-03-02T16:43:09.223Z,6.20
2023-03-02T16:45:35.939Z,6.20
2023-03-02T16:48:03.727Z,6.10
2023-03-02T16:50:30.950Z,6.00
2023-03-02T16:52:58.967Z,5.90
2023-03-02T16:55:26.104Z,5.90
2023-03-02T16:57:53.230Z,5.80
2023-03-02T17:00:20.983Z,5.80
2023-03-02T17:02:48.536Z,5.70
2023-03-02T17:05:16.480Z,5.60
2023-03-02T17:07:45.901Z,5.50
2023-03-02T17:10:18.138Z,5.50
2023-03-02T17:12:46.943Z,5.40
2023-03-02T17:15:14.344Z,5.30
2023-03-02T17:17:41.371Z,5.10
2023-03-02T17:20:10.071Z,5.10
2023-03-02T17:22:36.811Z,5.00
2023-03-02T17:25:05.022Z,4.90
2023-03-02T17:27:31.776Z,4.80
2023-03-02T17:29:58.555Z,4.70
2023-03-02T17:32:25.332Z,4.60
2023-03-02T17:34:52.098Z,4.50
2023-03-02T17:37:18.849Z,4.50
2023-03-02T17:39:45.706Z,4.50
2023-03-02T17:42:12.303Z,4.40
2023-03-02T17:44:40.440Z,4.30
2023-03-02T17:47:08.247Z,4.20
2023-03-02T17:49:39.185Z,4.20
2023-03-02T17:52:06.777Z,4.20
2023-03-02T17:54:34.098Z,4.00
2023-03-02T17:57:00.971Z,3.90
2023-03-02T17:59:30.315Z,3.80
2023-03-02T18:01:56.992Z,3.80
2023-03-02T18:04:23.837Z,3.70
2023-03-02T18:06:52.399Z,3.70
2023-03-02T18:09:20.445Z,3.60
2023-03-02T18:11:47.357Z,3.60
2023-03-02T18:14:19.845Z,3.50
2023-03-02T18:16:47.263Z,3.50
2023-03-02T18:19:14.022Z,3.40
2023-03-02T18:21:41.799Z,3.40
2023-03-02T18:24:09.502Z,3.30
2023-03-02T18:26:36.533Z,3.20
2023-03-02T18:29:03.421Z,3.10
2023-03-02T18:31:31.411Z,3.00
2023-03-02T18:33:58.925Z,3.00
2023-03-02T18:36:31.545Z,3.00
2023-03-02T18:38:58.447Z,2.90
2023-03-02T18:41:27.120Z,2.80
2023-03-02T18:43:54.005Z,2.80
2023-03-02T18:46:26.250Z,2.80
2023-03-02T18:48:54.948Z,2.80
2023-03-02T18:51:23.167Z,2.70
2023-03-02T18:53:51.153Z,2.70
2023-03-02T18:56:18.161Z,2.60
2023-03-02T18:58:45.303Z,2.60
2023-03-02T19:01:12.324Z,2.50
2023-03-02T19:03:40.029Z,2.50
2023-03-02T19:06:07.424Z,2.40
2023-03-02T19:08:35.467Z,2.40
2023-03-02T19:11:03.677Z,2.30
2023-03-02T19:13:30.585Z,2.30
2023-03-02T19:15:57.302Z,2.20
2023-03-02T19:18:24.885Z,2.20
2023-03-02T19:20:52.117Z,2.20
2023-03-02T19:23:19.005Z,2.20
2023-03-02T19:25:47.496Z,2.10
2023-03-02T19:28:14.467Z,2.10
2023-03-02T19:30:41.272Z,2.10
2023-03-02T19:33:09.757Z,2.10
2023-03-02T19:35:37.794Z,2.10
2023-03-02T19:38:05.796Z,2.10
2023-03-02T19:40:34.160Z,2.00
2023-03-02T19:43:01.628Z,2.00
2023-03-02T19:45:32.387Z,1.90
2023-03-02T19:47:59.810Z,1.90
2023-03-02T19:50:27.643Z,1.90
2023-03-02T19:52:54.880Z,1.90
2023-03-02T19:55:22.511Z,1.90
2023-03-02T19:57:56.392Z,1.90
2023-03-02T20:00:24.246Z,1.90
2023-03-02T20:02:51.213Z,1.80
2023-03-02T20:05:18.462Z,1.90
2023-03-02T20:07:45.211Z,1.80
2023-03-02T20:10:19.153Z,1.80
2023-03-02T20:12:45.869Z,1.80
2023-03-02T20:15:12.544Z,1.70
2023-03-02T20:17:39.209Z,1.70
2023-03-02T20:20:07.304Z,1.70
2023-03-02T20:22:34.764Z,1.70
2023-03-02T20:25:01.445Z,1.60
2023-03-02T20:27:31.254Z,1.70
2023-03-02T20:29:59.002Z,1.60
2023-03-02T20:32:25.796Z,1.60
2023-03-02T20:34:52.772Z,1.60
2023-03-02T20:37:19.580Z,1.50
2023-03-02T20:39:47.948Z,1.50
2023-03-02T20:42:14.734Z,1.50
2023-03-02T20:44:41.498Z,1.50
2023-03-02T20:47:14.857Z,1.40
2023-03-02T20:49:42.031Z,1.40
2023-03-02T20:52:10.344Z,1.40
2023-03-02T20:54:41.276Z,1.30
2023-03-02T20:57:08.663Z,1.40
2023-03-02T20:59:37.654Z,1.30
2023-03-02T21:02:07.775Z,1.30
2023-03-02T21:04:36.339Z,1.30
2023-03-02T21:07:03.325Z,1.20
2023-03-02T21:09:30.632Z,1.20
2023-03-02T21:11:58.800Z,1.10
2023-03-02T21:14:27.423Z,1.10
2023-03-02T21:16:56.332Z,1.10
2023-03-02T21:19:23.591Z,1.00
2023-03-02T21:21:50.647Z,1.00
2023-03-02T21:24:17.844Z,1.00
2023-03-02T21:26:46.775Z,1.00
2023-03-02T21:29:14.096Z,1.00
2023-03-02T21:31:42.216Z,1.00
2023-03-02T21:34:08.977Z,1.00
2023-03-02T21:36:35.836Z,1.00
2023-03-02T21:39:04.102Z,1.10
2023-03-02T21:41:31.208Z,1.00
2023-03-02T21:43:57.909Z,1.00
2023-03-02T21:46:24.595Z,1.00
2023-03-02T21:48:51.538Z,1.00
2023-03-02T21:51:18.650Z,0.90
2023-03-02T21:53:45.613Z,1.00
2023-03-02T21:56:20.509Z,1.00
2023-03-02T21:58:52.698Z,1.00
2023-03-02T22:01:20.722Z,1.00
2023-03-02T22:03:47.669Z,1.00
2023-03-02T22:06:26.781Z,1.00
2023-03-02T22:08:54.257Z,1.00
2023-03-02T22:11:26.491Z,1.00
2023-03-02T22:13:56.318Z,1.00
2023-03-02T22:16:28.602Z,1.00
2023-03-02T22:18:58.609Z,1.00
2023-03-02T22:21:30.154Z,1.00
2023-03-02T22:24:13.577Z,1.00
2023-03-02T22:27:01.993Z,1.00
2023-03-02T22:29:40.672Z,1.00
2023-03-02T22:32:30.892Z,1.00
2023-03-02T22:35:00.244Z,0.90
2023-03-02T22:37:33.113Z,1.00
2023-03-02T22:40:29.226Z,1.00
2023-03-02T22:43:11.555Z,1.00
2023-03-02T22:45:40.097Z,0.90
2023-03-02T22:48:21.519Z,0.90
2023-03-02T22:50:49.977Z,0.90
2023-03-02T22:53:29.841Z,0.80
2023-03-02T22:55:59.603Z,0.80
2023-03-02T22:58:49.227Z,0.90
2023-03-02T23:01:24.446Z,0.80
2023-03-02T23:04:02.910Z,0.80
2023-03-02T23:06:33.706Z,0.90
2023-03-02T23:09:03.020Z,0.80
2023-03-02T23:11:34.281Z,0.80
2023-03-02T23:14:02.305Z,0.80
2023-03-02T23:16:35.708Z,0.80
2023-03-02T23:19:03.933Z,0.70
2023-03-02T23:21:40.896Z,0.70
2023-03-02T23:24:08.658Z,0.70
2023-03-02T23:26:35.906Z,0.70
2023-03-02T23:29:03.532Z,0.70
2023-03-02T23:31:30.431Z,0.70
2023-03-02T23:33:57.100Z,0.60
2023-03-02T23:36:23.807Z,0.60
2023-03-02T23:38:50.870Z,0.50
2023-03-02T23:41:18.245Z,0.50
2023-03-02T23:43:45.017Z,0.50
2023-03-02T23:46:14.084Z,0.50
2023-03-02T23:48:42.104Z,0.50
2023-03-02T23:51:09.498Z,0.50
2023-03-02T23:53:36.295Z,0.50
2023-03-02T23:56:03.125Z,0.50
2023-03-02T23:58:29.819Z,0.50
